Decoded Metar for DAOI (ECH-CHELIFF in ALGERIA) (IATA:QAS) | Meteo·Mobile Aviation Weather
aviador You're here:

DAOI Decoded Metar

ECH-CHELIFF in ALGERIA
Report Time2019-10-22 14:00:00
UTC Time2019-10-22 14:56:52
Flight Rules mvfr MVFR
Wind280° at 07 kt
W.Decomp.*RWY 26: 6.5 kt HW 2.5 kt RCW
Visibility9999 m
Phenomena:N/A
Clouds:Broken 026 Hf
Few CB 030 Hf
Expected CloudBase > 2,000 ft AGL from Temp-Dew spread
Ceiling2,600 ft
Temp16°C (ISA +2)
Dew Point11°C (72% RH)
AAT13.8°C
QNH1008 hPa
Density Alt1,043 ft
Elevation469 ft
Report Wrong Elevation
Raw Report
METAR DAOI 221400Z 28007KT 9999 BKN026 FEW030CB 16/11 Q1008=

Extra information for DAOI:More info

Metar Taf Metar & Taf Last 4 Metars F.Rules Stats Wind Profile Meteogram Temp Stats Airport Information Weather charts Add Link Nearby VenuesMetar ALERT Operation Metar Decoded Social comments